Time;durP1;ratioP1;P1;durP2;ratioP2;P2;SDS_P1;SDS_P2;PMS_P1;PMS_P2;Temp;Humidity;BMP_temperature;BMP_pressure;BME280_temperature;BME280_humidity;BME280_pressure;Samples;Min_cycle;Max_cycle;Signal;HPM_P1;HPM_P2
2021/01/06 00:01:04;;;;;;;17.48;8.00;;;3.30;99.90;;;1.53;94.54;101298.97;5055520;28;20132;-40
2021/01/06 00:03:31;;;;;;;21.15;8.38;;;3.30;99.90;;;1.53;94.28;101293.56;5006100;28;20127;-40
2021/01/06 00:06:08;;;;;;;14.82;7.30;;;3.30;99.90;;;1.55;94.41;101300.50;5022620;28;20075;-40
2021/01/06 00:08:36;;;;;;;17.08;7.65;;;3.30;99.90;;;1.53;94.19;101289.03;5071880;28;20040;-40
2021/01/06 00:11:05;;;;;;;16.25;7.85;;;3.40;99.90;;;1.62;94.33;101297.25;5055114;28;20057;-40
2021/01/06 00:13:32;;;;;;;17.08;7.97;;;3.40;99.90;;;1.64;94.31;101289.91;5071686;28;20048;-40
2021/01/06 00:15:59;;;;;;;16.58;6.90;;;3.40;99.90;;;1.60;93.97;101294.69;5071687;28;20060;-40
2021/01/06 00:18:28;;;;;;;17.35;7.18;;;3.40;99.90;;;1.63;93.72;101296.28;5038718;28;20533;-40
2021/01/06 00:20:57;;;;;;;15.07;7.22;;;3.40;99.90;;;1.64;94.02;101289.91;5038524;28;20568;-40
2021/01/06 00:23:25;;;;;;;15.40;6.65;;;3.40;99.90;;;1.66;93.87;101290.59;5038620;28;20044;-40
2021/01/06 00:25:53;;;;;;;14.73;7.35;;;3.40;99.90;;;1.65;93.78;101292.44;5071714;28;20479;-40
2021/01/06 00:28:22;;;;;;;17.20;7.82;;;3.40;99.90;;;1.71;94.13;101285.63;5022199;28;20045;-40
2021/01/06 00:30:55;;;;;;;14.40;6.63;;;3.50;99.90;;;1.72;93.75;101281.94;5038572;28;20072;-40
2021/01/06 00:33:29;;;;;;;14.93;6.88;;;3.50;99.90;;;1.74;93.64;101279.13;5054492;28;20498;-40
2021/01/06 00:36:13;;;;;;;13.82;6.78;;;3.50;99.90;;;1.69;94.11;101275.00;5039489;28;20430;-40
2021/01/06 00:38:41;;;;;;;16.67;6.63;;;3.50;99.90;;;1.73;94.07;101283.66;5071483;28;20457;-40
2021/01/06 00:41:08;;;;;;;14.63;6.97;;;3.50;99.90;;;1.70;93.99;101276.69;5022414;28;20106;-40
2021/01/06 00:43:36;;;;;;;15.85;7.20;;;3.50;99.90;;;1.69;93.88;101277.69;5038143;28;20044;-40
2021/01/06 00:46:04;;;;;;;13.30;7.22;;;3.50;99.90;;;1.78;94.06;101276.00;5021931;28;20423;-40
2021/01/06 00:48:31;;;;;;;14.25;6.65;;;3.50;99.90;;;1.77;93.66;101270.78;5087823;28;20045;-40
2021/01/06 00:51:01;;;;;;;14.77;6.60;;;3.50;99.90;;;1.72;94.01;101271.19;5022446;28;20045;-40
2021/01/06 00:53:29;;;;;;;15.18;7.07;;;3.50;99.90;;;1.75;93.79;101267.38;5038275;28;20388;-40
2021/01/06 00:56:04;;;;;;;13.50;6.80;;;3.50;99.90;;;1.82;93.70;101269.31;5040113;28;20114;-40
2021/01/06 00:58:34;;;;;;;14.95;6.68;;;3.60;99.90;;;1.83;93.70;101273.72;5071014;28;20200;-40
2021/01/06 01:01:04;;;;;;;14.02;6.60;;;3.60;99.90;;;1.85;94.20;101266.34;5038555;28;20511;-40
2021/01/06 01:03:39;;;;;;;13.48;6.25;;;3.60;99.90;;;1.83;93.94;101265.63;5055471;28;20123;-39
2021/01/06 01:06:07;;;;;;;16.15;7.22;;;3.60;99.90;;;1.84;93.94;101261.94;5005256;28;20044;-39
2021/01/06 01:08:34;;;;;;;13.82;6.07;;;3.60;99.90;;;1.86;93.32;101257.31;5037919;28;20033;-40
2021/01/06 01:11:02;;;;;;;13.55;7.18;;;3.60;99.90;;;1.85;93.47;101257.44;5054013;28;20037;-40
2021/01/06 01:13:29;;;;;;;15.02;6.75;;;3.60;99.90;;;1.80;93.22;101252.47;5021207;28;20041;-40
2021/01/06 01:15:59;;;;;;;16.33;7.00;;;3.60;99.90;;;1.82;93.82;101261.25;5054309;28;20041;-40
2021/01/06 01:18:29;;;;;;;12.00;5.85;;;3.60;99.90;;;1.80;93.47;101257.03;5054000;28;20059;-40
2021/01/06 01:20:59;;;;;;;12.50;6.00;;;3.60;99.90;;;1.82;93.68;101249.66;5054156;28;20059;-40
2021/01/06 01:23:29;;;;;;;16.63;6.03;;;3.60;99.90;;;1.84;93.95;101256.56;5053432;28;20524;-40
2021/01/06 01:25:58;;;;;;;13.45;6.72;;;3.60;99.90;;;1.83;94.06;101262.94;5053784;28;20064;-40
2021/01/06 01:28:27;;;;;;;15.60;7.07;;;3.60;99.90;;;1.81;93.68;101259.56;5070552;28;20499;-39
2021/01/06 01:30:56;;;;;;;13.80;6.47;;;3.60;99.90;;;1.82;93.84;101261.25;5070295;28;20040;-40
2021/01/06 01:33:26;;;;;;;13.98;6.63;;;3.60;99.90;;;1.85;93.39;101266.34;5070179;28;20049;-40
2021/01/06 01:35:59;;;;;;;13.10;6.18;;;3.60;99.90;;;1.85;93.55;101265.50;5086743;28;20057;-40
2021/01/06 01:38:30;;;;;;;12.38;6.43;;;3.60;99.90;;;1.88;93.65;101272.47;5053626;28;20089;-40
2021/01/06 01:41:12;;;;;;;12.70;5.97;;;3.60;99.90;;;1.84;93.80;101263.81;5087318;28;20473;-40
2021/01/06 01:43:40;;;;;;;12.38;6.40;;;3.60;99.90;;;1.87;93.58;101271.59;5070010;28;20036;-40
2021/01/06 01:46:09;;;;;;;14.05;6.55;;;3.70;99.90;;;1.87;92.97;101266.22;5037100;28;20044;-40
2021/01/06 01:48:42;;;;;;;15.20;7.47;;;3.70;99.90;;;1.82;93.34;101271.19;5053934;28;20037;-40
2021/01/06 01:51:29;;;;;;;12.73;6.15;;;3.60;99.90;;;1.82;93.92;101266.63;5070484;28;20041;-40
2021/01/06 01:54:05;;;;;;;12.77;5.82;;;3.60;99.90;;;1.85;93.47;101260.13;5053337;28;20064;-40
2021/01/06 01:56:46;;;;;;;14.10;6.07;;;3.70;99.90;;;1.90;93.64;101265.09;5054522;28;20049;-40
2021/01/06 01:59:28;;;;;;;13.32;5.72;;;3.70;99.90;;;1.88;93.68;101259.84;5072185;28;20044;-40
2021/01/06 02:02:04;;;;;;;12.18;5.88;;;3.60;99.90;;;1.85;93.15;101260.97;5091479;28;20063;-40
2021/01/06 02:04:42;;;;;;;12.07;6.25;;;3.70;99.90;;;1.86;93.64;101257.31;5041733;28;20060;-40
2021/01/06 02:07:26;;;;;;;13.13;5.95;;;3.70;99.90;;;1.85;93.58;101260.13;5057524;28;20045;-40
2021/01/06 02:10:09;;;;;;;13.15;5.93;;;3.70;99.90;;;1.84;93.87;101255.75;5057401;28;20429;-40
2021/01/06 02:12:47;;;;;;;13.73;6.55;;;3.60;99.90;;;1.82;94.27;101261.25;5074101;28;20045;-40
2021/01/06 02:15:43;;;;;;;13.13;6.90;;;3.60;99.90;;;1.83;93.53;101264.81;5025291;28;20068;-40
2021/01/06 02:18:13;;;;;;;11.93;6.22;;;3.60;99.90;;;1.86;93.78;101257.31;5073982;28;20049;-39
2021/01/06 02:20:41;;;;;;;14.38;6.57;;;3.60;99.90;;;1.91;93.44;101261.41;5073897;28;20044;-40
2021/01/06 02:23:09;;;;;;;14.40;6.43;;;3.70;99.90;;;1.83;93.85;101257.56;5040804;28;20048;-40
2021/01/06 02:25:39;;;;;;;13.00;6.03;;;3.60;99.90;;;1.84;93.94;101264.66;5041068;28;20049;-40
2021/01/06 02:28:08;;;;;;;11.82;6.03;;;3.60;99.90;;;1.84;93.21;101259.25;5026068;28;20044;-40
2021/01/06 02:30:35;;;;;;;12.80;6.00;;;3.60;99.90;;;1.82;93.52;101255.88;5057341;28;20059;-40
2021/01/06 02:33:03;;;;;;;13.70;6.60;;;3.60;99.90;;;1.84;93.37;101261.13;5057249;28;20051;-40
2021/01/06 02:35:31;;;;;;;13.73;6.38;;;3.60;99.90;;;1.86;94.10;101261.81;5040742;28;20098;-40
2021/01/06 02:37:58;;;;;;;11.68;6.18;;;3.70;99.90;;;1.89;93.49;101261.53;5040664;28;20052;-40
2021/01/06 02:40:25;;;;;;;13.27;6.60;;;3.70;99.90;;;1.85;93.35;101252.88;5057027;28;20514;-40
2021/01/06 02:42:53;;;;;;;14.48;6.65;;;3.60;99.90;;;1.89;93.23;101258.00;5024139;28;20572;-40
2021/01/06 02:45:21;;;;;;;11.55;5.95;;;3.70;99.90;;;1.88;93.56;101249.06;5023852;28;20119;-40
2021/01/06 02:47:51;;;;;;;11.18;5.72;;;3.70;99.90;;;1.88;92.85;101246.38;5056706;28;20585;-40
2021/01/06 02:50:27;;;;;;;11.07;5.40;;;3.70;99.90;;;1.86;92.84;101256.44;5073196;28;20090;-40
2021/01/06 02:53:04;;;;;;;14.18;5.68;;;3.70;99.90;;;1.91;92.80;101254.16;5056608;28;20072;-40
2021/01/06 02:55:36;;;;;;;12.10;5.35;;;3.70;99.90;;;1.90;92.11;101254.31;5056569;28;20064;-40
2021/01/06 02:58:11;;;;;;;10.57;5.38;;;3.70;99.90;;;1.91;93.16;101258.72;5008723;28;20056;-40
2021/01/06 03:00:38;;;;;;;14.65;5.93;;;3.70;99.90;;;1.88;92.86;101253.63;5089952;28;20149;-40
2021/01/06 03:03:13;;;;;;;11.55;6.10;;;3.70;99.90;;;1.89;91.85;101258.84;5039917;28;20049;-40
2021/01/06 03:05:48;;;;;;;11.32;5.45;;;3.70;99.90;;;1.89;92.49;101247.25;5056332;28;20474;-40
2021/01/06 03:08:18;;;;;;;12.70;5.97;;;3.70;99.90;;;1.89;92.69;101244.56;5073021;28;20076;-40
2021/01/06 03:10:46;;;;;;;11.60;5.93;;;3.70;99.90;;;1.86;92.29;101256.44;5054741;28;20051;-41
2021/01/06 03:13:14;;;;;;;11.90;6.47;;;3.70;99.90;;;1.88;92.47;101253.63;5074198;28;20044;-40
2021/01/06 03:15:41;;;;;;;11.43;5.78;;;3.60;99.90;;;1.95;91.27;101254.72;5057524;28;20049;-40
2021/01/06 03:18:09;;;;;;;11.32;5.80;;;3.70;99.90;;;1.97;91.37;101255.44;5024684;28;20045;-40
2021/01/06 03:20:50;;;;;;;10.40;5.65;;;3.70;99.90;;;2.01;91.38;101248.75;5039902;28;20072;-40
2021/01/06 03:23:36;;;;;;;10.63;5.15;;;3.80;99.90;;;2.01;90.88;101259.53;5072454;28;20079;-40
2021/01/06 03:26:11;;;;;;;10.55;4.97;;;3.80;99.90;;;1.97;90.81;101250.06;5072719;28;20041;-40
2021/01/06 03:28:42;;;;;;;10.85;6.25;;;3.80;99.90;;;2.01;90.52;101248.75;5072666;28;20041;-40
2021/01/06 03:31:18;;;;;;;10.15;5.38;;;3.80;99.90;;;2.02;90.39;101247.75;5055843;28;20110;-40
2021/01/06 03:34:00;;;;;;;10.13;5.22;;;3.80;99.90;;;1.97;90.40;101245.50;5072264;28;20040;-40
2021/01/06 03:36:39;;;;;;;9.73;4.85;;;3.80;99.90;;;1.96;90.79;101251.03;5055889;28;20045;-40
2021/01/06 03:39:20;;;;;;;10.38;5.05;;;3.70;99.90;;;1.97;91.03;101247.34;5057298;28;20075;-40
2021/01/06 03:41:48;;;;;;;11.40;5.03;;;3.80;99.90;;;1.95;90.40;101246.66;5073606;28;20407;-40
2021/01/06 03:44:18;;;;;;;10.32;5.25;;;3.70;99.90;;;1.99;90.20;101243.53;5022813;28;20044;-40
2021/01/06 03:46:58;;;;;;;10.00;4.70;;;3.80;99.90;;;2.07;90.29;101247.34;5055663;28;20537;-40
2021/01/06 03:49:48;;;;;;;8.02;4.35;;;3.80;99.90;;;2.04;89.92;101244.94;5055506;28;20125;-40
2021/01/06 03:52:35;;;;;;;8.90;4.70;;;3.80;99.90;;;2.03;89.17;101241.38;5039104;28;20503;-40
2021/01/06 03:55:25;;;;;;;9.70;5.00;;;3.80;99.90;;;2.03;89.26;101243.25;5055253;28;20049;-40
2021/01/06 03:57:57;;;;;;;9.77;4.90;;;3.80;99.90;;;2.03;89.90;101246.75;5055548;28;20094;-40
2021/01/06 04:00:51;;;;;;;9.95;5.20;;;3.80;99.90;;;2.05;89.34;101241.25;5055512;28;20119;-40
2021/01/06 04:03:44;;;;;;;10.32;5.18;;;3.80;99.90;;;2.04;88.60;101232.31;5055322;28;20533;-40
2021/01/06 04:06:14;;;;;;;9.85;5.15;;;3.80;99.90;;;2.07;88.60;101237.41;5071881;28;20132;-40
2021/01/06 04:08:55;;;;;;;10.48;4.80;;;3.80;99.90;;;2.07;88.83;101236.56;5088671;28;20119;-40
2021/01/06 04:11:30;;;;;;;11.70;4.88;;;3.80;99.90;;;2.08;88.16;101239.09;5071536;28;20572;-40
2021/01/06 04:13:58;;;;;;;10.05;4.70;;;3.80;99.90;;;2.06;87.38;101235.69;5055523;28;20053;-40
2021/01/06 04:16:26;;;;;;;12.27;5.77;;;3.80;99.90;;;2.10;88.56;101236.28;5071753;28;20572;-40
2021/01/06 04:18:55;;;;;;;11.40;5.45;;;3.80;99.90;;;2.09;88.21;101234.56;5054998;28;20549;-40
2021/01/06 04:21:23;;;;;;;8.85;5.15;;;3.90;99.90;;;2.10;87.45;101231.72;5087791;28;20359;-40
2021/01/06 04:23:50;;;;;;;8.57;4.63;;;3.80;99.90;;;2.10;88.08;101230.88;5022054;28;20063;-40
2021/01/06 04:26:18;;;;;;;;;;;3.90;99.90;;;2.06;88.03;101230.31;5039398;28;20045;-40
2021/01/06 04:28:46;;;;;;;11.73;4.85;;;3.80;99.90;;;2.10;88.21;101230.88;5038384;28;20279;-41
2021/01/06 04:31:19;;;;;;;9.73;4.75;;;3.90;99.90;;;2.07;87.71;101229.31;5054703;28;20048;-40
2021/01/06 04:33:51;;;;;;;10.63;5.30;;;3.90;99.90;;;2.07;87.42;101232.00;5057081;28;20079;-40
2021/01/06 04:36:25;;;;;;;9.57;4.85;;;3.90;99.90;;;2.07;88.63;101226.63;5071329;28;20041;-40
2021/01/06 04:38:58;;;;;;;9.45;5.05;;;3.90;99.90;;;2.07;87.87;101231.19;5071400;28;20098;-40
2021/01/06 04:41:37;;;;;;;10.35;5.18;;;3.90;99.90;;;2.03;87.48;101236.00;5055452;28;20041;-40
2021/01/06 04:44:18;;;;;;;11.55;5.75;;;3.80;99.90;;;2.00;87.91;101230.91;5054475;28;20037;-40
2021/01/06 04:46:46;;;;;;;11.90;5.20;;;3.80;99.90;;;2.00;87.76;101233.59;5088170;28;20052;-40
2021/01/06 04:49:23;;;;;;;10.75;5.20;;;3.80;99.90;;;2.02;88.18;101231.63;5071121;28;20693;-40
2021/01/06 04:52:02;;;;;;;11.38;5.22;;;3.80;99.90;;;2.01;87.89;101236.16;5038007;28;20128;-40
2021/01/06 04:54:58;;;;;;;8.10;4.50;;;3.80;99.90;;;1.96;89.02;101229.50;5071028;28;20465;-40
2021/01/06 04:57:37;;;;;;;10.48;4.75;;;3.80;99.90;;;1.96;88.52;101233.03;5087822;28;20052;-40
2021/01/06 05:00:13;;;;;;;11.40;4.97;;;3.70;99.90;;;1.96;88.76;101234.91;5070825;28;20495;-40
2021/01/06 05:03:13;;;;;;;9.00;4.53;;;3.80;99.90;;;1.98;88.94;101232.91;5055728;28;20579;-40
2021/01/06 05:05:54;;;;;;;10.30;5.50;;;3.80;99.90;;;1.89;88.18;101231.94;5070968;28;20061;-40
2021/01/06 05:08:47;;;;;;;10.18;5.03;;;3.70;99.90;;;1.91;88.32;101231.78;5056967;28;20442;-40
2021/01/06 05:11:25;;;;;;;10.13;5.15;;;3.70;99.90;;;1.86;88.86;101230.41;5070105;28;20049;-40
2021/01/06 05:14:00;;;;;;;10.68;5.35;;;3.70;99.90;;;1.93;88.69;101227.13;5054733;28;20119;-40
2021/01/06 05:16:34;;;;;;;10.10;5.13;;;3.70;99.90;;;1.92;88.73;101230.81;5070652;28;20099;-40
2021/01/06 05:19:06;;;;;;;9.77;5.45;;;3.70;99.90;;;1.84;88.56;101229.66;5053755;28;20072;-40
2021/01/06 05:21:34;;;;;;;10.88;5.20;;;3.70;99.90;;;1.85;89.15;101234.06;5087199;28;20052;-40
2021/01/06 05:24:16;;;;;;;12.10;5.45;;;3.60;99.90;;;1.89;89.16;101223.84;5087195;28;20048;-40
2021/01/06 05:26:46;;;;;;;12.70;5.90;;;3.70;99.90;;;1.88;89.12;101227.53;5055884;28;20127;-40
2021/01/06 05:29:28;;;;;;;12.02;5.68;;;3.70;99.90;;;1.92;89.15;101228.94;5070625;28;20044;-40
2021/01/06 05:31:56;;;;;;;13.85;6.25;;;3.70;99.90;;;1.85;89.06;101228.66;5071819;28;20090;-41
2021/01/06 05:34:27;;;;;;;12.10;5.78;;;3.60;99.90;;;1.80;89.61;101225.56;5069696;28;20052;-40
2021/01/06 05:36:54;;;;;;;12.27;5.53;;;3.60;99.90;;;1.82;89.43;101228.13;5070461;28;20101;-40
2021/01/06 05:39:27;;;;;;;14.02;6.47;;;3.60;99.90;;;1.84;89.43;101228.84;5070473;28;20045;-40
2021/01/06 05:42:11;;;;;;;13.32;6.78;;;3.60;99.90;;;1.84;89.28;101224.28;5037337;28;20101;-40
2021/01/06 05:44:38;;;;;;;11.25;6.22;;;3.60;99.90;;;1.84;89.38;101229.66;5086828;28;20507;-40
2021/01/06 05:47:18;;;;;;;14.33;6.43;;;3.60;99.90;;;1.86;89.55;101227.72;5054113;28;20048;-40
2021/01/06 05:49:46;;;;;;;13.93;6.45;;;3.70;99.90;;;1.89;89.37;101217.63;5071137;28;20468;-40
2021/01/06 05:52:16;;;;;;;15.82;7.40;;;3.70;99.90;;;1.80;89.22;101227.44;5070311;28;20043;-40
2021/01/06 05:54:52;;;;;;;14.13;6.50;;;3.60;99.90;;;1.80;89.11;101220.19;5069981;28;20048;-40
2021/01/06 05:57:39;;;;;;;13.13;5.95;;;3.60;99.90;;;1.77;89.23;101220.47;5070244;28;20518;-40
2021/01/06 06:00:27;;;;;;;13.20;6.53;;;3.60;99.90;;;1.76;89.53;101223.34;5070061;28;20565;-40
2021/01/06 06:03:14;;;;;;;13.43;7.25;;;3.60;99.90;;;1.75;88.65;101227.84;5086753;28;20120;-40
2021/01/06 06:06:05;;;;;;;14.45;6.95;;;3.60;99.90;;;1.79;88.84;101229.25;5070095;28;20036;-40
2021/01/06 06:08:45;;;;;;;12.68;6.53;;;3.60;99.90;;;1.78;88.91;101227.56;5036922;28;20485;-40
2021/01/06 06:11:34;;;;;;;14.98;6.90;;;3.60;99.90;;;1.84;88.53;101234.22;5086369;28;20044;-40
2021/01/06 06:14:36;;;;;;;12.63;6.15;;;3.60;99.90;;;1.82;88.29;101231.66;5071040;28;20538;-40
2021/01/06 06:17:22;;;;;;;15.48;7.70;;;3.60;99.90;;;1.76;88.50;101234.94;5069870;28;20473;-40
2021/01/06 06:20:09;;;;;;;15.77;7.28;;;3.60;99.90;;;1.72;88.07;101237.06;5070058;28;20048;-40
2021/01/06 06:22:56;;;;;;;14.85;7.25;;;3.50;99.90;;;1.71;88.37;101234.53;5071037;28;20461;-40
2021/01/06 06:25:39;;;;;;;15.80;7.50;;;3.50;99.90;;;1.79;88.32;101229.25;5069684;28;20045;-40
2021/01/06 06:28:26;;;;;;;14.50;7.15;;;3.60;99.90;;;1.78;87.79;101232.94;5069876;28;20132;-40
2021/01/06 06:31:00;;;;;;;14.07;7.45;;;3.60;99.90;;;1.72;87.80;101236.22;5053110;28;20045;-40
2021/01/06 06:33:33;;;;;;;13.88;7.10;;;3.50;99.90;;;1.71;88.13;101234.53;5070901;28;20122;-40
2021/01/06 06:36:12;;;;;;;17.55;7.50;;;3.50;99.90;;;1.69;88.09;101241.88;5071327;28;20056;-40
2021/01/06 06:38:45;;;;;;;;;;;3.50;99.90;;;1.69;88.30;101233.81;5070608;28;20116;-40
2021/01/06 06:41:23;;;;;;;15.25;7.13;;;3.50;99.90;;;1.62;87.80;101233.53;5069882;28;19928;-40
2021/01/06 06:44:04;;;;;;;13.40;7.47;;;3.50;99.90;;;1.58;88.26;101242.88;5070809;28;20410;-40
2021/01/06 06:46:52;;;;;;;17.17;8.13;;;3.40;99.90;;;1.61;87.88;101247.97;5056778;28;20041;-40
2021/01/06 06:49:48;;;;;;;16.38;6.93;;;3.40;99.90;;;1.62;87.77;101240.78;5090469;28;20460;-40
2021/01/06 06:52:36;;;;;;;12.45;6.38;;;3.40;99.90;;;1.58;87.54;101242.88;5074619;28;20473;-40
2021/01/06 06:55:26;;;;;;;15.82;7.38;;;3.40;99.90;;;1.60;87.55;101232.84;5073063;28;20066;-40
2021/01/06 06:58:27;;;;;;;13.88;7.10;;;3.40;99.90;;;1.61;87.79;101239.91;5074483;28;20580;-40
2021/01/06 07:00:57;;;;;;;16.50;7.60;;;3.40;99.90;;;1.58;87.68;101241.03;5073041;28;20124;-40
2021/01/06 07:03:39;;;;;;;16.58;7.30;;;3.40;99.90;;;1.55;87.18;101249.38;5072866;28;20462;-40
2021/01/06 07:06:11;;;;;;;13.80;7.43;;;3.40;99.90;;;1.58;87.38;101242.88;5073761;28;20051;-40
2021/01/06 07:08:48;;;;;;;15.38;7.68;;;3.40;99.90;;;1.57;87.14;101239.34;5074402;28;20440;-40
2021/01/06 07:11:36;;;;;;;18.55;7.80;;;3.40;99.90;;;1.60;86.97;101248.13;5073770;28;20060;-40
2021/01/06 07:14:20;;;;;;;13.38;7.00;;;3.40;99.90;;;1.54;87.48;101250.38;5089754;28;20123;-40
2021/01/06 07:17:10;;;;;;;17.42;7.03;;;3.40;99.90;;;1.53;86.79;101253.22;5089838;28;20044;-40
2021/01/06 07:19:53;;;;;;;15.02;8.27;;;3.40;99.90;;;1.58;86.63;101251.78;5074278;28;20067;-40
2021/01/06 07:22:30;;;;;;;13.70;7.68;;;3.40;99.90;;;1.57;86.18;101258.16;5089669;28;20068;-40
2021/01/06 07:25:34;;;;;;;13.45;7.10;;;3.40;99.90;;;1.58;86.61;101253.66;5072464;28;20050;-40
2021/01/06 07:28:14;;;;;;;14.75;7.50;;;3.40;99.90;;;1.58;86.26;101256.34;5043960;28;20135;-40
2021/01/06 07:30:48;;;;;;;17.38;7.63;;;3.40;99.90;;;1.58;85.84;101249.09;5089462;28;20451;-40
2021/01/06 07:33:38;;;;;;;15.35;7.40;;;3.40;99.90;;;1.60;85.57;101258.91;5057052;28;20070;-40
2021/01/06 07:36:28;;;;;;;13.73;6.65;;;3.40;99.90;;;1.60;85.59;101265.09;5074103;28;20522;-40
2021/01/06 07:38:56;;;;;;;19.00;7.60;;;3.40;99.90;;;1.62;85.77;101251.53;5089384;28;20132;-40
2021/01/06 07:41:26;;;;;;;13.52;7.03;;;3.40;99.90;;;1.55;86.24;101257.47;5072374;28;20503;-40
2021/01/06 07:44:21;;;;;;;12.93;7.15;;;3.40;99.90;;;1.57;85.66;101258.16;5072236;28;20048;-40
2021/01/06 07:47:08;;;;;;;14.23;7.03;;;3.40;99.90;;;1.60;86.02;101259.72;5055647;28;20086;-40
2021/01/06 07:49:56;;;;;;;12.90;6.68;;;3.40;99.90;;;1.64;85.16;101260.31;5073540;28;20040;-40
2021/01/06 07:52:44;;;;;;;13.05;6.78;;;3.40;99.90;;;1.55;85.28;101260.16;5089039;28;20044;-40
2021/01/06 07:55:34;;;;;;;15.18;7.28;;;3.40;99.90;;;1.60;85.74;101266.97;5088787;28;20127;-40
2021/01/06 07:58:16;;;;;;;11.85;6.68;;;3.40;99.90;;;1.62;85.85;101264.97;5071800;28;20044;-40
2021/01/06 08:00:56;;;;;;;15.63;7.40;;;3.40;99.90;;;1.63;86.23;101269.38;5072026;28;20051;-40
2021/01/06 08:03:34;;;;;;;13.20;6.60;;;3.40;99.90;;;1.60;86.27;101269.66;5073242;28;20119;-40
2021/01/06 08:06:04;;;;;;;13.80;7.38;;;3.40;99.90;;;1.62;86.03;101273.06;5073488;28;20041;-40
2021/01/06 08:08:45;;;;;;;15.57;6.78;;;3.40;99.90;;;1.64;85.59;101273.75;5073286;28;20052;-40
2021/01/06 08:11:19;;;;;;;14.93;7.43;;;3.40;99.90;;;1.66;86.19;101272.59;5072665;28;20098;-40
2021/01/06 08:13:48;;;;;;;14.10;7.47;;;3.50;99.90;;;1.66;84.98;101280.66;5039099;28;20060;-40
2021/01/06 08:16:24;;;;;;;13.70;7.20;;;3.50;99.90;;;1.61;84.93;101274.03;5073046;28;20514;-40
2021/01/06 08:19:05;;;;;;;14.15;7.00;;;3.50;99.90;;;1.68;84.85;101267.09;5055822;28;20499;-40
2021/01/06 08:22:01;;;;;;;14.00;7.07;;;3.50;99.90;;;1.66;84.92;101277.97;5072016;28;20510;-40
2021/01/06 08:24:50;;;;;;;15.73;7.00;;;3.40;99.90;;;1.68;84.30;101275.16;5071466;28;20082;-40
2021/01/06 08:27:30;;;;;;;13.68;6.70;;;3.50;99.90;;;1.71;84.06;101275.72;5072754;28;20064;-40
2021/01/06 08:30:12;;;;;;;14.50;6.60;;;3.50;99.90;;;1.74;84.67;101279.97;5072881;28;20095;-40
2021/01/06 08:32:40;;;;;;;12.50;6.30;;;3.50;99.90;;;1.72;84.99;101276.56;5072861;28;20071;-40
2021/01/06 08:35:19;;;;;;;14.35;7.05;;;3.50;99.90;;;1.72;85.07;101274.75;5072511;28;20147;-40
2021/01/06 08:37:51;;;;;;;13.18;6.60;;;3.50;99.90;;;1.85;83.69;101276.28;5071454;28;20052;-40
2021/01/06 08:40:35;;;;;;;12.73;6.80;;;3.60;99.90;;;1.88;83.52;101275.16;5071474;28;20399;-40
2021/01/06 08:43:13;;;;;;;13.07;6.68;;;3.60;99.90;;;1.91;84.62;101274.84;5071961;28;20049;-40
2021/01/06 08:45:54;;;;;;;14.90;7.03;;;3.60;99.90;;;2.00;84.48;101269.47;5071160;28;20094;-40
2021/01/06 08:48:36;;;;;;;14.32;6.45;;;3.70;99.90;;;2.07;84.61;101275.09;5087866;28;20105;-40
2021/01/06 08:51:10;;;;;;;17.65;8.45;;;3.80;99.90;;;2.08;83.76;101270.56;5072256;28;20048;-40
2021/01/06 08:53:42;;;;;;;17.50;8.93;;;3.80;99.90;;;2.20;84.28;101284.69;5072357;28;20068;-40
2021/01/06 08:56:23;;;;;;;17.80;8.45;;;3.90;99.90;;;2.22;83.25;101272.78;5070943;28;20098;-40
2021/01/06 08:58:55;;;;;;;18.52;8.43;;;4.00;99.90;;;2.27;83.76;101277.72;5070843;28;20036;-40
2021/01/06 09:01:48;;;;;;;18.65;8.88;;;4.00;99.90;;;2.25;82.90;101285.09;5070827;28;20055;-40
2021/01/06 09:04:32;;;;;;;17.27;8.90;;;4.00;99.90;;;2.22;83.33;101288.09;5070701;28;20123;-40
2021/01/06 09:07:19;;;;;;;18.85;8.73;;;4.00;99.90;;;2.17;82.06;101282.31;5072060;28;20049;-40
2021/01/06 09:10:15;;;;;;;20.20;9.38;;;4.00;99.90;;;2.16;82.68;101292.22;5072137;28;20044;-40
2021/01/06 09:13:05;;;;;;;17.85;8.55;;;4.00;99.90;;;2.14;82.56;101286.13;5071798;28;20055;-40
2021/01/06 09:15:56;;;;;;;21.13;9.60;;;3.90;99.90;;;2.02;82.76;101285.44;5070762;28;20106;-40
2021/01/06 09:18:41;;;;;;;18.73;8.45;;;3.90;99.90;;;2.10;82.76;101285.56;5071900;28;20044;-40
2021/01/06 09:21:25;;;;;;;18.15;9.07;;;3.90;99.90;;;2.06;82.68;101284.16;5070411;28;20106;-40
2021/01/06 09:24:02;;;;;;;19.95;9.73;;;3.90;99.90;;;2.05;82.73;101290.53;5087074;28;20037;-40
2021/01/06 09:26:30;;;;;;;18.50;8.90;;;3.90;99.90;;;2.07;82.65;101285.84;5070479;28;20049;-40
2021/01/06 09:29:05;;;;;;;;;;;3.80;99.90;;;2.04;82.37;101291.53;5087806;28;20040;-40
2021/01/06 09:31:48;;;;;;;16.67;8.27;;;3.80;99.90;;;2.09;82.72;101293.78;5070431;28;20387;-40
2021/01/06 09:34:23;;;;;;;18.88;8.95;;;3.90;99.90;;;2.08;81.80;101289.41;5071517;28;20044;-40
2021/01/06 09:36:52;;;;;;;20.95;9.57;;;3.80;99.90;;;2.17;82.81;101293.91;5070650;28;20486;-40
2021/01/06 09:39:26;;;;;;;18.85;9.27;;;3.90;99.90;;;2.22;81.80;101298.88;5070556;28;20041;-40
2021/01/06 09:41:59;;;;;;;19.05;8.75;;;3.90;99.90;;;2.21;80.71;101302.56;5087165;28;20055;-40
2021/01/06 09:44:30;;;;;;;21.55;9.60;;;4.00;99.90;;;2.27;81.87;101293.88;5071479;28;20090;-40
2021/01/06 09:47:12;;;;;;;22.67;9.30;;;4.00;99.90;;;2.27;81.63;101307.34;5071973;28;20059;-40
2021/01/06 09:49:47;;;;;;;20.30;10.20;;;4.00;99.90;;;2.18;80.24;101302.84;5071524;28;20055;-40
2021/01/06 09:52:32;;;;;;;20.90;10.15;;;4.00;99.90;;;2.24;80.84;101308.47;5070463;28;20071;-40
2021/01/06 09:55:01;;;;;;;21.13;9.23;;;4.00;99.90;;;2.21;80.26;101308.78;5071280;28;20518;-40
2021/01/06 09:57:31;;;;;;;21.25;10.07;;;4.00;99.90;;;2.28;81.03;101306.34;5071342;28;20613;-40
2021/01/06 10:00:26;;;;;;;23.13;10.50;;;4.00;99.90;;;2.27;80.86;101302.81;5071477;28;20048;-40
2021/01/06 10:02:54;;;;;;;22.33;9.93;;;4.00;99.90;;;2.26;81.34;101294.88;5071264;28;20040;-40
2021/01/06 10:05:41;;;;;;;24.02;9.80;;;4.00;99.90;;;2.28;80.77;101303.66;5053775;28;20036;-40
2021/01/06 10:08:34;;;;;;;21.45;9.38;;;4.10;99.90;;;2.30;80.09;101304.38;5070133;28;20040;-40
2021/01/06 10:11:27;;;;;;;20.10;9.40;;;4.00;99.90;;;2.32;80.08;101296.97;5086395;28;20117;-40
2021/01/06 10:13:56;;;;;;;21.05;9.35;;;4.00;99.90;;;2.41;81.17;101293.44;5071287;28;20052;-40
2021/01/06 10:16:36;;;;;;;20.30;9.02;;;4.10;99.90;;;2.47;80.71;101293.84;5070277;28;20113;-40
2021/01/06 10:19:22;;;;;;;20.67;9.32;;;4.20;99.90;;;2.40;80.12;101291.72;5070059;28;20045;-40
2021/01/06 10:22:07;;;;;;;21.00;8.90;;;4.20;99.90;;;2.34;80.71;101289.59;5075175;28;20465;-40
2021/01/06 10:24:51;;;;;;;16.45;7.80;;;4.10;99.90;;;2.29;80.33;101291.91;5073656;28;20041;-40
2021/01/06 10:27:31;;;;;;;17.38;8.38;;;4.10;99.90;;;2.13;79.57;101282.59;5075123;28;20131;-41
2021/01/06 10:30:14;;;;;;;16.92;8.60;;;4.00;99.90;;;2.15;79.84;101287.81;5075229;28;20049;-41
2021/01/06 10:32:49;;;;;;;16.50;8.38;;;4.00;99.90;;;2.17;80.44;101285.00;5058314;28;20040;-40
2021/01/06 10:35:46;;;;;;;20.92;8.90;;;3.90;99.90;;;2.14;81.54;101286.13;5074935;28;20132;-40
2021/01/06 10:38:23;;;;;;;16.17;7.72;;;3.90;99.90;;;2.17;81.15;101274.22;5075135;28;20082;-40
2021/01/06 10:41:05;;;;;;;18.23;7.97;;;3.90;99.90;;;2.19;79.83;101283.00;5090261;28;20499;-40
2021/01/06 10:43:44;;;;;;;14.48;7.30;;;3.90;99.90;;;2.12;79.88;101280.91;5073516;28;20045;-40
2021/01/06 10:46:40;;;;;;;17.45;8.15;;;3.90;99.90;;;2.06;79.12;101276.09;5074731;28;20044;-40
2021/01/06 10:49:36;;;;;;;18.38;8.27;;;3.90;99.90;;;2.09;80.17;101270.41;5074839;28;20045;-40
2021/01/06 10:52:19;;;;;;;17.15;7.22;;;3.90;99.90;;;2.04;79.72;101269.16;5074718;28;20047;-40
2021/01/06 10:55:09;;;;;;;18.05;7.90;;;3.90;99.90;;;2.05;79.48;101266.31;5074774;28;20395;-40
2021/01/06 10:57:49;;;;;;;14.95;6.95;;;3.80;99.90;;;2.06;79.37;101264.47;5090199;28;20064;-40
2021/01/06 11:00:27;;;;;;;16.05;6.80;;;3.90;99.90;;;2.11;79.61;101271.09;5058180;28;20667;-40
2021/01/06 11:03:27;;;;;;;15.90;6.93;;;3.90;99.90;;;2.03;78.36;101268.31;5090049;28;20064;-40